sensor_id;sensor_type;location;lat;lon;timestamp;pressure;altitude;pressure_sealevel;temperature;humidity
59831;BME280;45711;50.108;13.712;2023-02-02T00:02:00;97605.09;;;2.81;85.19
59831;BME280;45711;50.108;13.712;2023-02-02T00:04:29;97607.41;;;2.77;84.87
59831;BME280;45711;50.108;13.712;2023-02-02T00:06:55;97617.28;;;2.82;85.70
59831;BME280;45711;50.108;13.712;2023-02-02T00:09:26;97618.56;;;2.80;84.96
59831;BME280;45711;50.108;13.712;2023-02-02T00:11:54;97613.97;;;2.75;85.88
59831;BME280;45711;50.108;13.712;2023-02-02T00:14:21;97610.97;;;2.83;86.52
59831;BME280;45711;50.108;13.712;2023-02-02T00:16:47;97614.09;;;2.68;86.41
59831;BME280;45711;50.108;13.712;2023-02-02T00:19:14;97609.44;;;2.59;84.97
59831;BME280;45711;50.108;13.712;2023-02-02T00:21:40;97613.31;;;2.68;84.12
59831;BME280;45711;50.108;13.712;2023-02-02T00:24:07;97621.66;;;2.76;85.83
59831;BME280;45711;50.108;13.712;2023-02-02T00:26:33;97619.72;;;2.72;85.69
59831;BME280;45711;50.108;13.712;2023-02-02T00:29:00;97628.09;;;2.81;85.24
59831;BME280;45711;50.108;13.712;2023-02-02T00:31:26;97619.31;;;2.92;85.68
59831;BME280;45711;50.108;13.712;2023-02-02T00:33:52;97625.06;;;2.89;85.70
59831;BME280;45711;50.108;13.712;2023-02-02T00:36:18;97629.06;;;2.91;84.77
59831;BME280;45711;50.108;13.712;2023-02-02T00:38:45;97630.44;;;2.94;85.13
59831;BME280;45711;50.108;13.712;2023-02-02T00:41:10;97622.53;;;2.94;84.73
59831;BME280;45711;50.108;13.712;2023-02-02T00:43:36;97616.63;;;3.03;85.44
59831;BME280;45711;50.108;13.712;2023-02-02T00:46:03;97614.50;;;2.89;83.84
59831;BME280;45711;50.108;13.712;2023-02-02T00:48:29;97618.84;;;2.95;84.28
59831;BME280;45711;50.108;13.712;2023-02-02T00:50:55;97622.00;;;2.80;84.75
59831;BME280;45711;50.108;13.712;2023-02-02T00:53:21;97625.34;;;2.75;85.58
59831;BME280;45711;50.108;13.712;2023-02-02T00:55:47;97625.78;;;2.84;84.11
59831;BME280;45711;50.108;13.712;2023-02-02T00:58:12;97625.06;;;2.89;84.93
59831;BME280;45711;50.108;13.712;2023-02-02T01:00:38;97635.28;;;2.97;85.24
59831;BME280;45711;50.108;13.712;2023-02-02T01:03:05;97621.72;;;2.93;85.06
59831;BME280;45711;50.108;13.712;2023-02-02T01:05:31;97625.91;;;2.77;85.20
59831;BME280;45711;50.108;13.712;2023-02-02T01:07:57;97634.84;;;2.88;85.25
59831;BME280;45711;50.108;13.712;2023-02-02T01:10:22;97623.25;;;2.77;85.90
59831;BME280;45711;50.108;13.712;2023-02-02T01:12:48;97631.97;;;2.90;85.79
59831;BME280;45711;50.108;13.712;2023-02-02T01:15:14;97629.78;;;2.87;84.79
59831;BME280;45711;50.108;13.712;2023-02-02T01:17:40;97634.69;;;2.95;85.37
59831;BME280;45711;50.108;13.712;2023-02-02T01:20:10;97636.38;;;2.72;83.69
59831;BME280;45711;50.108;13.712;2023-02-02T01:22:39;97637.25;;;2.90;85.50
59831;BME280;45711;50.108;13.712;2023-02-02T01:25:08;97638.06;;;2.78;84.13
59831;BME280;45711;50.108;13.712;2023-02-02T01:27:33;97637.88;;;2.68;84.91
59831;BME280;45711;50.108;13.712;2023-02-02T01:29:59;97635.69;;;2.77;86.15
59831;BME280;45711;50.108;13.712;2023-02-02T01:32:24;97644.38;;;2.89;85.60
59831;BME280;45711;50.108;13.712;2023-02-02T01:34:50;97635.66;;;2.89;85.76
59831;BME280;45711;50.108;13.712;2023-02-02T01:37:17;97637.53;;;2.76;84.55
59831;BME280;45711;50.108;13.712;2023-02-02T01:39:42;97637.50;;;2.88;85.64
59831;BME280;45711;50.108;13.712;2023-02-02T01:42:12;97643.41;;;2.95;85.50
59831;BME280;45711;50.108;13.712;2023-02-02T01:47:49;97629.97;;;2.68;83.49
59831;BME280;45711;50.108;13.712;2023-02-02T01:50:17;97641.84;;;2.83;85.82
59831;BME280;45711;50.108;13.712;2023-02-02T01:52:46;97629.22;;;2.85;85.16
59831;BME280;45711;50.108;13.712;2023-02-02T01:55:15;97632.91;;;2.84;86.06
59831;BME280;45711;50.108;13.712;2023-02-02T01:57:44;97637.00;;;2.91;85.58
59831;BME280;45711;50.108;13.712;2023-02-02T02:00:13;97641.84;;;2.83;85.10
59831;BME280;45711;50.108;13.712;2023-02-02T02:02:40;97644.63;;;2.88;85.41
59831;BME280;45711;50.108;13.712;2023-02-02T02:05:08;97644.03;;;2.86;85.58
59831;BME280;45711;50.108;13.712;2023-02-02T02:07:36;97639.47;;;2.69;82.97
59831;BME280;45711;50.108;13.712;2023-02-02T02:10:04;97636.00;;;2.81;85.71
59831;BME280;45711;50.108;13.712;2023-02-02T02:12:30;97642.44;;;2.85;85.61
59831;BME280;45711;50.108;13.712;2023-02-02T02:14:56;97641.84;;;2.83;83.45
59831;BME280;45711;50.108;13.712;2023-02-02T02:17:49;97644.13;;;2.91;85.30
59831;BME280;45711;50.108;13.712;2023-02-02T02:20:36;97646.56;;;2.92;85.48
59831;BME280;45711;50.108;13.712;2023-02-02T02:24:03;97642.25;;;2.74;84.27
59831;BME280;45711;50.108;13.712;2023-02-02T02:27:13;97653.53;;;2.58;84.85
59831;BME280;45711;50.108;13.712;2023-02-02T02:30:07;97645.47;;;2.65;86.48
59831;BME280;45711;50.108;13.712;2023-02-02T02:32:41;97645.47;;;2.65;85.48
59831;BME280;45711;50.108;13.712;2023-02-02T02:35:12;97645.72;;;2.63;84.88
59831;BME280;45711;50.108;13.712;2023-02-02T02:37:46;97640.53;;;2.68;84.55
59831;BME280;45711;50.108;13.712;2023-02-02T02:40:20;97641.53;;;2.79;85.03
59831;BME280;45711;50.108;13.712;2023-02-02T02:42:50;97633.41;;;2.69;84.51
59831;BME280;45711;50.108;13.712;2023-02-02T02:45:18;97640.41;;;2.75;85.88
59831;BME280;45711;50.108;13.712;2023-02-02T02:47:47;97646.50;;;2.75;84.92
59831;BME280;45711;50.108;13.712;2023-02-02T02:50:13;97638.84;;;2.50;81.54
59831;BME280;45711;50.108;13.712;2023-02-02T02:52:39;97634.34;;;2.63;83.80
59831;BME280;45711;50.108;13.712;2023-02-02T02:55:06;97636.09;;;2.57;83.18
59831;BME280;45711;50.108;13.712;2023-02-02T02:57:49;97631.38;;;2.59;85.36
59831;BME280;45711;50.108;13.712;2023-02-02T03:00:34;97635.38;;;2.62;83.43
59831;BME280;45711;50.108;13.712;2023-02-02T03:03:11;97637.22;;;2.61;83.31
59831;BME280;45711;50.108;13.712;2023-02-02T03:05:48;97628.72;;;2.59;84.78
59831;BME280;45711;50.108;13.712;2023-02-02T03:08:22;97629.69;;;2.30;81.00
59831;BME280;45711;50.108;13.712;2023-02-02T03:10:50;97619.81;;;2.48;84.15
59831;BME280;45711;50.108;13.712;2023-02-02T03:13:16;97621.25;;;2.56;85.75
59831;BME280;45711;50.108;13.712;2023-02-02T03:15:43;97618.75;;;2.49;85.60
59831;BME280;45711;50.108;13.712;2023-02-02T03:18:11;97619.22;;;2.46;85.87
59831;BME280;45711;50.108;13.712;2023-02-02T03:20:38;97627.13;;;2.58;85.48
59831;BME280;45711;50.108;13.712;2023-02-02T03:23:03;97619.47;;;2.45;82.72
59831;BME280;45711;50.108;13.712;2023-02-02T03:25:29;97623.53;;;2.64;85.03
59831;BME280;45711;50.108;13.712;2023-02-02T03:27:55;97614.38;;;2.55;82.89
59831;BME280;45711;50.108;13.712;2023-02-02T03:30:21;97620.69;;;2.54;84.65
59831;BME280;45711;50.108;13.712;2023-02-02T03:32:47;97622.19;;;2.50;84.45
59831;BME280;45711;50.108;13.712;2023-02-02T03:35:15;97617.59;;;2.57;83.05
59831;BME280;45711;50.108;13.712;2023-02-02T03:37:40;97615.31;;;2.49;84.74
59831;BME280;45711;50.108;13.712;2023-02-02T03:40:07;97630.81;;;2.45;84.01
59831;BME280;45711;50.108;13.712;2023-02-02T03:42:33;97623.50;;;2.36;84.31
59831;BME280;45711;50.108;13.712;2023-02-02T03:44:58;97631.19;;;2.37;84.40
59831;BME280;45711;50.108;13.712;2023-02-02T03:47:27;97627.25;;;2.51;84.98
59831;BME280;45711;50.108;13.712;2023-02-02T03:49:53;97629.78;;;2.46;83.76
59831;BME280;45711;50.108;13.712;2023-02-02T03:52:19;97629.53;;;2.48;83.46
59831;BME280;45711;50.108;13.712;2023-02-02T03:54:45;97633.47;;;2.45;84.22
59831;BME280;45711;50.108;13.712;2023-02-02T03:57:11;97639.66;;;2.51;84.44
59831;BME280;45711;50.108;13.712;2023-02-02T03:59:36;97629.53;;;2.48;82.84
59831;BME280;45711;50.108;13.712;2023-02-02T04:02:02;97634.03;;;2.47;84.99
59831;BME280;45711;50.108;13.712;2023-02-02T04:04:27;97639.81;;;2.33;84.02
59831;BME280;45711;50.108;13.712;2023-02-02T04:06:53;97635.06;;;2.35;83.28
59831;BME280;45711;50.108;13.712;2023-02-02T04:09:20;97642.44;;;2.33;83.69
59831;BME280;45711;50.108;13.712;2023-02-02T04:11:46;97641.75;;;2.25;81.04
59831;BME280;45711;50.108;13.712;2023-02-02T04:14:11;97641.28;;;2.29;81.50
59831;BME280;45711;50.108;13.712;2023-02-02T04:16:37;97650.13;;;2.34;83.58
59831;BME280;45711;50.108;13.712;2023-02-02T04:19:02;97652.75;;;2.46;84.67
59831;BME280;45711;50.108;13.712;2023-02-02T04:21:28;97666.75;;;2.46;83.44
59831;BME280;45711;50.108;13.712;2023-02-02T04:23:54;97675.97;;;2.44;83.55
59831;BME280;45711;50.108;13.712;2023-02-02T04:26:21;97670.78;;;2.37;81.95
59831;BME280;45711;50.108;13.712;2023-02-02T04:28:50;97676.31;;;2.36;81.42
59831;BME280;45711;50.108;13.712;2023-02-02T04:31:15;97677.81;;;2.32;80.76
59831;BME280;45711;50.108;13.712;2023-02-02T04:33:41;97672.97;;;2.40;81.89
59831;BME280;45711;50.108;13.712;2023-02-02T04:36:07;97689.81;;;2.63;84.41
59831;BME280;45711;50.108;13.712;2023-02-02T04:38:33;97688.03;;;2.28;77.63
59831;BME280;45711;50.108;13.712;2023-02-02T04:41:05;97691.34;;;2.47;83.82
59831;BME280;45711;50.108;13.712;2023-02-02T04:43:33;97699.84;;;2.49;83.25
59831;BME280;45711;50.108;13.712;2023-02-02T04:45:59;97696.63;;;2.47;81.94
59831;BME280;45711;50.108;13.712;2023-02-02T04:48:25;97702.78;;;2.64;83.62
59831;BME280;45711;50.108;13.712;2023-02-02T04:50:50;97707.97;;;2.59;84.05
59831;BME280;45711;50.108;13.712;2023-02-02T04:53:16;97708.06;;;2.64;83.28
59831;BME280;45711;50.108;13.712;2023-02-02T04:55:41;97708.78;;;2.48;79.56
59831;BME280;45711;50.108;13.712;2023-02-02T04:58:07;97716.16;;;2.58;81.11
59831;BME280;45711;50.108;13.712;2023-02-02T05:00:34;97715.31;;;2.69;82.93
59831;BME280;45711;50.108;13.712;2023-02-02T05:02:59;97715.78;;;2.66;83.49
59831;BME280;45711;50.108;13.712;2023-02-02T05:05:25;97717.50;;;2.60;83.79
59831;BME280;45711;50.108;13.712;2023-02-02T05:07:51;97712.31;;;2.65;84.05
59831;BME280;45711;50.108;13.712;2023-02-02T05:10:16;97708.75;;;2.71;83.39
59831;BME280;45711;50.108;13.712;2023-02-02T05:12:42;97716.69;;;2.71;84.08
59831;BME280;45711;50.108;13.712;2023-02-02T05:15:09;97718.53;;;2.59;83.34
59831;BME280;45711;50.108;13.712;2023-02-02T05:17:36;97722.19;;;2.70;83.79
59831;BME280;45711;50.108;13.712;2023-02-02T05:20:01;97718.44;;;2.54;82.92
59831;BME280;45711;50.108;13.712;2023-02-02T05:22:27;97711.75;;;2.63;83.87
59831;BME280;45711;50.108;13.712;2023-02-02T05:24:52;97728.88;;;2.72;84.22
59831;BME280;45711;50.108;13.712;2023-02-02T05:27:18;97723.03;;;2.70;83.99
59831;BME280;45711;50.108;13.712;2023-02-02T05:29:45;97727.72;;;2.68;81.00
59831;BME280;45711;50.108;13.712;2023-02-02T05:32:11;97729.56;;;2.68;83.00
59831;BME280;45711;50.108;13.712;2023-02-02T05:34:38;97737.69;;;2.78;83.44
59831;BME280;45711;50.108;13.712;2023-02-02T05:37:03;97743.81;;;2.67;83.19
59831;BME280;45711;50.108;13.712;2023-02-02T05:39:29;97747.59;;;2.71;83.42
59831;BME280;45711;50.108;13.712;2023-02-02T05:41:54;97748.28;;;2.66;82.56
59831;BME280;45711;50.108;13.712;2023-02-02T05:44:20;97748.41;;;2.71;83.17
59831;BME280;45711;50.108;13.712;2023-02-02T05:46:45;97753.22;;;2.74;83.75
59831;BME280;45711;50.108;13.712;2023-02-02T05:49:12;97746.47;;;2.67;83.69
59831;BME280;45711;50.108;13.712;2023-02-02T05:51:42;97743.22;;;2.65;83.01
59831;BME280;45711;50.108;13.712;2023-02-02T05:54:09;97746.34;;;2.62;83.90
59831;BME280;45711;50.108;13.712;2023-02-02T05:56:34;97750.00;;;2.72;83.91
59831;BME280;45711;50.108;13.712;2023-02-02T05:59:00;97747.59;;;2.71;83.73
59831;BME280;45711;50.108;13.712;2023-02-02T06:01:26;97751.19;;;2.53;81.03
59831;BME280;45711;50.108;13.712;2023-02-02T06:03:51;97760.13;;;2.64;84.33
59831;BME280;45711;50.108;13.712;2023-02-02T06:06:17;97759.31;;;2.63;81.59
59831;BME280;45711;50.108;13.712;2023-02-02T06:08:44;97756.53;;;2.70;83.49
59831;BME280;45711;50.108;13.712;2023-02-02T06:11:10;97746.22;;;2.68;83.26
59831;BME280;45711;50.108;13.712;2023-02-02T06:13:36;97756.78;;;2.68;82.97
59831;BME280;45711;50.108;13.712;2023-02-02T06:16:02;97752.75;;;2.77;83.14
59831;BME280;45711;50.108;13.712;2023-02-02T06:18:27;97749.19;;;2.72;83.60
59831;BME280;45711;50.108;13.712;2023-02-02T06:20:55;97744.84;;;2.66;83.41
59831;BME280;45711;50.108;13.712;2023-02-02T06:23:21;97753.09;;;2.69;83.74
59831;BME280;45711;50.108;13.712;2023-02-02T06:25:48;97760.72;;;2.66;83.50
59831;BME280;45711;50.108;13.712;2023-02-02T06:28:13;97758.53;;;2.63;82.95
59831;BME280;45711;50.108;13.712;2023-02-02T06:30:39;97761.25;;;2.68;83.23
59831;BME280;45711;50.108;13.712;2023-02-02T06:33:04;97765.50;;;2.69;83.16
59831;BME280;45711;50.108;13.712;2023-02-02T06:35:31;97772.53;;;2.75;83.44
59831;BME280;45711;50.108;13.712;2023-02-02T06:37:57;97768.41;;;2.67;83.47
59831;BME280;45711;50.108;13.712;2023-02-02T06:40:23;97770.94;;;2.62;84.00
59831;BME280;45711;50.108;13.712;2023-02-02T06:42:55;97783.78;;;2.59;82.19
59831;BME280;45711;50.108;13.712;2023-02-02T06:45:26;97781.16;;;2.59;83.22
59831;BME280;45711;50.108;13.712;2023-02-02T06:47:53;97782.84;;;2.65;82.72
59831;BME280;45711;50.108;13.712;2023-02-02T06:50:18;97781.50;;;2.62;82.98
59831;BME280;45711;50.108;13.712;2023-02-02T06:52:46;97792.75;;;2.58;81.60
59831;BME280;45711;50.108;13.712;2023-02-02T06:55:12;97783.56;;;2.72;83.16
59831;BME280;45711;50.108;13.712;2023-02-02T06:57:38;97788.59;;;2.73;83.42
59831;BME280;45711;50.108;13.712;2023-02-02T07:00:06;97796.66;;;2.67;82.54
59831;BME280;45711;50.108;13.712;2023-02-02T07:02:32;97803.09;;;2.59;80.54
59831;BME280;45711;50.108;13.712;2023-02-02T07:04:57;97802.75;;;2.67;83.42
59831;BME280;45711;50.108;13.712;2023-02-02T07:07:23;97806.88;;;2.63;82.12
59831;BME280;45711;50.108;13.712;2023-02-02T07:09:49;97803.31;;;2.69;81.83
59831;BME280;45711;50.108;13.712;2023-02-02T07:12:14;97811.59;;;2.73;83.07
59831;BME280;45711;50.108;13.712;2023-02-02T07:14:40;97817.31;;;2.70;80.25
59831;BME280;45711;50.108;13.712;2023-02-02T07:17:07;97811.94;;;2.76;82.55
59831;BME280;45711;50.108;13.712;2023-02-02T07:19:32;97822.94;;;2.73;82.17
59831;BME280;45711;50.108;13.712;2023-02-02T07:21:58;97828.22;;;2.73;82.19
59831;BME280;45711;50.108;13.712;2023-02-02T07:24:23;97825.25;;;2.58;79.87
59831;BME280;45711;50.108;13.712;2023-02-02T07:26:49;97820.91;;;2.75;81.93
59831;BME280;45711;50.108;13.712;2023-02-02T07:29:14;97824.09;;;2.77;82.03
59831;BME280;45711;50.108;13.712;2023-02-02T07:31:40;97822.41;;;2.83;81.25
59831;BME280;45711;50.108;13.712;2023-02-02T07:34:07;97828.69;;;2.94;81.74
59831;BME280;45711;50.108;13.712;2023-02-02T07:36:32;97827.75;;;3.00;81.55
59831;BME280;45711;50.108;13.712;2023-02-02T07:38:58;97831.38;;;3.34;80.60
59831;BME280;45711;50.108;13.712;2023-02-02T07:41:26;97832.81;;;3.13;80.88
59831;BME280;45711;50.108;13.712;2023-02-02T07:43:52;97841.84;;;3.41;80.86
59831;BME280;45711;50.108;13.712;2023-02-02T07:46:18;97836.47;;;3.36;79.45
59831;BME280;45711;50.108;13.712;2023-02-02T07:48:43;97843.78;;;3.57;78.80
59831;BME280;45711;50.108;13.712;2023-02-02T07:51:12;97843.47;;;3.30;79.88
59831;BME280;45711;50.108;13.712;2023-02-02T07:53:41;97845.22;;;3.24;80.73
59831;BME280;45711;50.108;13.712;2023-02-02T07:56:08;97851.66;;;3.28;79.97
59831;BME280;45711;50.108;13.712;2023-02-02T07:58:34;97856.13;;;3.40;79.84
59831;BME280;45711;50.108;13.712;2023-02-02T08:01:01;97845.41;;;3.35;77.17
59831;BME280;45711;50.108;13.712;2023-02-02T08:03:26;97857.59;;;3.47;77.14
59831;BME280;45711;50.108;13.712;2023-02-02T08:05:54;97855.28;;;3.51;78.35
59831;BME280;45711;50.108;13.712;2023-02-02T08:08:21;97855.69;;;3.31;79.75
59831;BME280;45711;50.108;13.712;2023-02-02T08:10:47;97859.59;;;3.17;79.83
59831;BME280;45711;50.108;13.712;2023-02-02T08:13:13;97860.97;;;3.08;78.51
59831;BME280;45711;50.108;13.712;2023-02-02T08:15:38;97866.75;;;2.93;80.05
59831;BME280;45711;50.108;13.712;2023-02-02T08:18:04;97873.63;;;2.94;80.77
59831;BME280;45711;50.108;13.712;2023-02-02T08:20:29;97872.38;;;2.96;81.18
59831;BME280;45711;50.108;13.712;2023-02-02T08:22:55;97875.13;;;2.90;79.28
59831;BME280;45711;50.108;13.712;2023-02-02T08:25:23;97870.88;;;2.89;81.65
59831;BME280;45711;50.108;13.712;2023-02-02T08:27:52;97877.88;;;2.95;81.66
59831;BME280;45711;50.108;13.712;2023-02-02T08:30:18;97885.00;;;2.94;81.48
59831;BME280;45711;50.108;13.712;2023-02-02T08:32:43;97883.97;;;2.84;79.64
59831;BME280;45711;50.108;13.712;2023-02-02T08:35:09;97886.50;;;2.90;81.35
59831;BME280;45711;50.108;13.712;2023-02-02T08:37:35;97882.16;;;2.84;79.07
59831;BME280;45711;50.108;13.712;2023-02-02T08:40:00;97892.59;;;2.91;81.18
59831;BME280;45711;50.108;13.712;2023-02-02T08:42:27;97892.03;;;2.89;82.10
59831;BME280;45711;50.108;13.712;2023-02-02T08:44:53;97888.47;;;2.95;81.38
59831;BME280;45711;50.108;13.712;2023-02-02T08:47:18;97891.00;;;2.90;80.19
59831;BME280;45711;50.108;13.712;2023-02-02T08:49:44;97893.38;;;2.91;82.03
59831;BME280;45711;50.108;13.712;2023-02-02T08:52:09;97900.53;;;2.91;81.27
59831;BME280;45711;50.108;13.712;2023-02-02T08:54:35;97903.63;;;2.99;81.58
59831;BME280;45711;50.108;13.712;2023-02-02T08:57:00;97905.59;;;2.92;81.29
59831;BME280;45711;50.108;13.712;2023-02-02T08:59:27;97895.81;;;2.93;80.97
59831;BME280;45711;50.108;13.712;2023-02-02T09:01:53;97912.84;;;2.97;81.79
59831;BME280;45711;50.108;13.712;2023-02-02T09:04:19;97911.56;;;2.99;80.87
59831;BME280;45711;50.108;13.712;2023-02-02T09:06:44;97912.03;;;2.85;80.27
59831;BME280;45711;50.108;13.712;2023-02-02T09:09:12;97921.22;;;2.94;80.89
59831;BME280;45711;50.108;13.712;2023-02-02T09:11:38;97915.59;;;3.02;81.30
59831;BME280;45711;50.108;13.712;2023-02-02T09:14:05;97920.06;;;2.90;79.91
59831;BME280;45711;50.108;13.712;2023-02-02T09:16:33;97919.03;;;2.91;80.71
59831;BME280;45711;50.108;13.712;2023-02-02T09:18:58;97922.63;;;2.96;82.34
59831;BME280;45711;50.108;13.712;2023-02-02T09:21:24;97918.13;;;2.97;81.62
59831;BME280;45711;50.108;13.712;2023-02-02T09:23:51;97932.94;;;2.98;81.51
59831;BME280;45711;50.108;13.712;2023-02-02T09:26:19;97928.81;;;3.02;81.52
59831;BME280;45711;50.108;13.712;2023-02-02T09:28:47;97924.41;;;2.96;81.90
59831;BME280;45711;50.108;13.712;2023-02-02T09:31:14;97931.91;;;2.99;82.33
59831;BME280;45711;50.108;13.712;2023-02-02T09:33:41;97940.75;;;2.93;82.24
59831;BME280;45711;50.108;13.712;2023-02-02T09:36:09;97944.31;;;2.98;81.30
59831;BME280;45711;50.108;13.712;2023-02-02T09:38:35;97948.91;;;2.91;80.31
59831;BME280;45711;50.108;13.712;2023-02-02T09:44:04;97952.84;;;3.00;82.31
59831;BME280;45711;50.108;13.712;2023-02-02T09:46:47;97950.19;;;3.00;81.31
59831;BME280;45711;50.108;13.712;2023-02-02T09:49:20;97958.25;;;3.06;80.06
59831;BME280;45711;50.108;13.712;2023-02-02T09:51:50;97957.56;;;3.10;80.93
59831;BME280;45711;50.108;13.712;2023-02-02T09:54:21;97956.28;;;3.13;80.40
59831;BME280;45711;50.108;13.712;2023-02-02T09:57:04;97955.59;;;3.17;80.81
59831;BME280;45711;50.108;13.712;2023-02-02T09:59:36;97960.41;;;3.09;81.12
59831;BME280;45711;50.108;13.712;2023-02-02T10:02:06;97952.38;;;3.15;81.12
59831;BME280;45711;50.108;13.712;2023-02-02T10:04:41;97954.44;;;3.13;80.72
59831;BME280;45711;50.108;13.712;2023-02-02T10:07:12;97950.91;;;3.19;80.42
59831;BME280;45711;50.108;13.712;2023-02-02T10:09:42;97954.22;;;3.15;81.23
59831;BME280;45711;50.108;13.712;2023-02-02T10:12:19;97955.28;;;3.14;81.21
59831;BME280;45711;50.108;13.712;2023-02-02T10:14:49;97953.06;;;3.11;80.95
59831;BME280;45711;50.108;13.712;2023-02-02T10:17:35;97955.59;;;3.17;80.88
59831;BME280;45711;50.108;13.712;2023-02-02T10:20:14;97957.22;;;3.18;81.16
59831;BME280;45711;50.108;13.712;2023-02-02T10:22:44;97958.38;;;3.22;80.67
59831;BME280;45711;50.108;13.712;2023-02-02T10:25:11;97963.19;;;3.25;80.75
59831;BME280;45711;50.108;13.712;2023-02-02T10:27:38;97959.75;;;3.25;79.46
59831;BME280;45711;50.108;13.712;2023-02-02T10:30:12;97962.50;;;3.30;80.78
59831;BME280;45711;50.108;13.712;2023-02-02T10:32:46;97958.50;;;3.27;81.18
59831;BME280;45711;50.108;13.712;2023-02-02T10:35:28;97959.16;;;3.35;81.39
59831;BME280;45711;50.108;13.712;2023-02-02T10:38:02;97949.84;;;3.44;80.25
59831;BME280;45711;50.108;13.712;2023-02-02T10:40:41;97954.47;;;3.37;80.58
59831;BME280;45711;50.108;13.712;2023-02-02T10:43:24;97953.53;;;3.43;80.14
59831;BME280;45711;50.108;13.712;2023-02-02T10:46:14;97952.16;;;3.40;80.68
59831;BME280;45711;50.108;13.712;2023-02-02T10:48:44;97955.50;;;3.36;81.14
59831;BME280;45711;50.108;13.712;2023-02-02T10:51:19;97953.75;;;3.30;81.03
59831;BME280;45711;50.108;13.712;2023-02-02T10:53:51;97949.97;;;3.37;81.07
59831;BME280;45711;50.108;13.712;2023-02-02T10:56:19;97952.03;;;3.47;80.68
59831;BME280;45711;50.108;13.712;2023-02-02T10:58:51;97957.31;;;3.35;80.69
59831;BME280;45711;50.108;13.712;2023-02-02T11:01:19;97951.91;;;3.30;80.84
59831;BME280;45711;50.108;13.712;2023-02-02T11:03:47;97960.19;;;3.34;81.38
59831;BME280;45711;50.108;13.712;2023-02-02T11:06:14;97958.59;;;3.33;81.07
59831;BME280;45711;50.108;13.712;2023-02-02T11:08:58;97953.66;;;3.36;81.36
59831;BME280;45711;50.108;13.712;2023-02-02T11:11:28;97958.94;;;3.36;81.40
59831;BME280;45711;50.108;13.712;2023-02-02T11:13:58;97968.59;;;3.42;80.45
59831;BME280;45711;50.108;13.712;2023-02-02T11:16:28;97960.56;;;3.37;80.75
59831;BME280;45711;50.108;13.712;2023-02-02T11:18:54;97962.72;;;3.52;76.30
59831;BME280;45711;50.108;13.712;2023-02-02T11:21:23;97956.75;;;3.45;80.45
59831;BME280;45711;50.108;13.712;2023-02-02T11:23:51;97956.97;;;3.43;79.35
59831;BME280;45711;50.108;13.712;2023-02-02T11:26:18;97965.38;;;3.40;80.32
59831;BME280;45711;50.108;13.712;2023-02-02T11:28:46;97958.47;;;3.39;80.29
59831;BME280;45711;50.108;13.712;2023-02-02T11:31:28;97970.69;;;3.40;80.68
59831;BME280;45711;50.108;13.712;2023-02-02T11:34:07;97962.06;;;3.45;80.38
59831;BME280;45711;50.108;13.712;2023-02-02T11:36:35;97965.59;;;3.39;80.67
59831;BME280;45711;50.108;13.712;2023-02-02T11:39:14;97975.38;;;3.38;80.34
59831;BME280;45711;50.108;13.712;2023-02-02T11:41:40;97971.47;;;3.41;79.93
59831;BME280;45711;50.108;13.712;2023-02-02T11:44:17;97965.50;;;3.34;78.75
59831;BME280;45711;50.108;13.712;2023-02-02T11:46:45;97973.78;;;3.37;77.79
59831;BME280;45711;50.108;13.712;2023-02-02T11:49:15;97974.47;;;3.33;80.66
59831;BME280;45711;50.108;13.712;2023-02-02T11:51:55;97970.44;;;3.42;78.87
59831;BME280;45711;50.108;13.712;2023-02-02T11:54:24;97974.94;;;3.41;79.37
59831;BME280;45711;50.108;13.712;2023-02-02T11:56:55;97981.34;;;3.34;79.14
59831;BME280;45711;50.108;13.712;2023-02-02T11:59:31;97986.31;;;3.30;81.36
59831;BME280;45711;50.108;13.712;2023-02-02T12:02:21;97979.31;;;3.36;79.28
59831;BME280;45711;50.108;13.712;2023-02-02T12:04:48;97980.47;;;3.40;78.96
59831;BME280;45711;50.108;13.712;2023-02-02T12:07:21;97987.81;;;3.38;79.71
59831;BME280;45711;50.108;13.712;2023-02-02T12:09:47;97981.00;;;3.30;81.03
59831;BME280;45711;50.108;13.712;2023-02-02T12:12:25;97975.03;;;3.35;80.08
59831;BME280;45711;50.108;13.712;2023-02-02T12:15:02;97983.56;;;3.37;80.64
59831;BME280;45711;50.108;13.712;2023-02-02T12:17:36;97983.66;;;3.42;80.40
59831;BME280;45711;50.108;13.712;2023-02-02T12:20:14;97984.72;;;3.41;80.12
59831;BME280;45711;50.108;13.712;2023-02-02T12:22:55;97979.41;;;3.52;78.17
59831;BME280;45711;50.108;13.712;2023-02-02T12:25:35;97979.63;;;3.39;79.91
59831;BME280;45711;50.108;13.712;2023-02-02T12:28:05;97982.72;;;3.48;76.50
59831;BME280;45711;50.108;13.712;2023-02-02T12:30:42;97996.22;;;3.58;78.54
59831;BME280;45711;50.108;13.712;2023-02-02T12:33:20;97993.31;;;3.48;78.60
59831;BME280;45711;50.108;13.712;2023-02-02T12:36:00;97999.06;;;3.57;78.25
59831;BME280;45711;50.108;13.712;2023-02-02T12:38:45;97990.91;;;3.46;79.29
59831;BME280;45711;50.108;13.712;2023-02-02T12:41:32;97994.50;;;3.40;79.92
59831;BME280;45711;50.108;13.712;2023-02-02T12:44:08;97997.81;;;3.47;78.34
59831;BME280;45711;50.108;13.712;2023-02-02T12:47:07;97994.34;;;3.47;79.02
59831;BME280;45711;50.108;13.712;2023-02-02T12:49:55;97997.81;;;3.47;78.23
59831;BME280;45711;50.108;13.712;2023-02-02T12:52:46;97992.31;;;3.49;79.48
59831;BME280;45711;50.108;13.712;2023-02-02T12:55:22;97998.03;;;3.46;79.55
59831;BME280;45711;50.108;13.712;2023-02-02T12:57:55;97997.47;;;3.56;78.48
59831;BME280;45711;50.108;13.712;2023-02-02T13:00:44;98005.84;;;3.52;78.70
59831;BME280;45711;50.108;13.712;2023-02-02T13:03:30;98009.09;;;3.55;79.45
59831;BME280;45711;50.108;13.712;2023-02-02T13:06:08;98008.41;;;3.59;79.47
59831;BME280;45711;50.108;13.712;2023-02-02T13:08:41;98017.13;;;3.60;79.31
59831;BME280;45711;50.108;13.712;2023-02-02T13:11:16;98011.16;;;3.52;80.11
59831;BME280;45711;50.108;13.712;2023-02-02T13:14:00;98013.59;;;3.54;79.81
59831;BME280;45711;50.108;13.712;2023-02-02T13:16:29;98020.47;;;3.55;77.85
59831;BME280;45711;50.108;13.712;2023-02-02T13:19:00;98011.84;;;3.48;79.97